Time;durP1;ratioP1;P1;durP2;ratioP2;P2;SDS_P1;SDS_P2;PMS_P1;PMS_P2;Temp;Humidity;BMP_temperature;BMP_pressure;BME280_temperature;BME280_humidity;BME280_pressure;Samples;Min_cycle;Max_cycle;Signal;HPM_P1;HPM_P2
2023/11/23 00:02:17;;;;;;;0.90;0.90;;;;;;;3.64;100.00;101355.22;5051132;28;20040;-75
2023/11/23 00:04:43;;;;;;;0.57;0.57;;;;;;;4.30;100.00;101483.56;5058335;28;20087;-74
2023/11/23 00:07:08;;;;;;;0.50;0.50;;;;;;;4.07;100.00;101463.50;5056035;28;20045;-75
2023/11/23 00:09:34;;;;;;;0.30;0.30;;;;;;;4.08;100.00;101478.28;5030339;28;20033;-75
2023/11/23 00:11:59;;;;;;;3.45;3.25;;;;;;;3.37;100.00;101366.13;5039104;28;20036;-74
2023/11/23 00:14:25;;;;;;;3.20;2.90;;;;;;;2.99;100.00;101278.88;5046020;28;20040;-75
2023/11/23 00:16:51;;;;;;;0.20;0.20;;;;;;;4.26;100.00;101497.25;5044646;28;20090;-75
2023/11/23 00:19:17;;;;;;;0.40;0.40;;;;;;;3.92;100.00;101476.72;5040761;28;20041;-75
2023/11/23 00:21:42;;;;;;;1.60;1.50;;;;;;;3.98;100.00;101495.13;5045129;28;20108;-75
2023/11/23 00:24:08;;;;;;;2.58;2.47;;;;;;;3.54;100.00;101404.13;5050402;28;20029;-74
2023/11/23 00:26:34;;;;;;;0.80;0.80;;;;;;;4.00;100.00;101476.22;5047691;28;20029;-74
2023/11/23 00:29:00;;;;;;;1.40;1.40;;;;;;;4.14;100.00;101496.69;5030761;28;20377;-75
2023/11/23 00:31:26;;;;;;;2.47;1.38;;;;;;;3.63;100.00;101403.63;5058408;28;20052;-76
2023/11/23 00:33:51;;;;;;;2.50;2.40;;;;;;;3.75;100.00;101484.63;5042414;28;20037;-76
2023/11/23 00:36:17;;;;;;;0.30;0.30;;;;;;;3.24;100.00;101382.88;5030471;28;20033;-73
2023/11/23 00:38:42;;;;;;;0.30;0.30;;;;;;;3.26;100.00;101381.22;5038618;28;20021;-76
2023/11/23 00:41:08;;;;;;;0.50;0.50;;;;;;;3.86;100.00;101479.03;5034714;28;20046;-74
2023/11/23 00:43:34;;;;;;;0.30;0.30;;;;;;;4.02;100.00;101516.13;5060295;28;20054;-76
2023/11/23 00:46:02;;;;;;;0.40;0.40;;;;;;;4.01;100.00;101501.38;5044894;28;20051;-77
2023/11/23 00:48:27;;;;;;;0.30;0.30;;;;;;;3.28;100.00;101391.69;5041774;28;20053;-75
2023/11/23 00:51:05;;;;;;;1.48;1.38;;;;;;;3.13;100.00;101377.19;5058740;28;20461;-75
2023/11/23 00:53:32;;;;;;;0.40;0.40;;;;;;;3.39;100.00;101395.63;5063797;28;20092;-76
2023/11/23 00:55:57;;;;;;;0.73;0.73;;;;;;;3.11;100.00;101378.84;5052801;28;20124;-75
2023/11/23 00:58:23;;;;;;;0.43;0.43;;;;;;;3.69;100.00;101509.41;5044306;28;20116;-75
2023/11/23 01:00:49;;;;;;;0.57;0.50;;;;;;;3.51;100.00;101492.22;5049623;28;20045;-75
2023/11/23 01:03:15;;;;;;;1.55;1.17;;;;;;;3.01;100.00;101378.34;5049582;28;20020;-75
2023/11/23 01:05:41;;;;;;;3.35;3.17;;;;;;;3.79;100.00;101507.31;5037581;28;20465;-76
2023/11/23 01:08:06;;;;;;;0.70;0.70;;;;;;;3.21;100.00;101402.56;5055917;28;20053;-75
2023/11/23 01:10:32;;;;;;;0.50;0.50;;;;;;;2.52;100.00;101300.06;5051824;28;20374;-75
2023/11/23 01:12:58;;;;;;;0.30;0.30;;;;;;;3.01;100.00;101415.50;5051658;28;20049;-74
2023/11/23 01:15:24;;;;;;;0.30;0.30;;;;;;;3.36;100.00;101504.44;5042052;28;20482;-74
2023/11/23 01:17:49;;;;;;;0.28;0.28;;;;;;;3.33;100.00;101509.50;5061573;28;20051;-75
2023/11/23 01:20:15;;;;;;;0.65;0.65;;;;;;;2.90;100.00;101414.13;5042395;28;20041;-75
2023/11/23 01:22:42;;;;;;;1.65;1.55;;;;;;;3.38;100.00;101508.88;5039333;28;20040;-74
2023/11/23 01:25:08;;;;;;;0.82;0.82;;;;;;;2.54;100.00;101389.13;5056932;28;20079;-74
2023/11/23 01:28:02;;;;;;;11.05;4.78;;;;;;;3.42;100.00;101530.69;5062377;28;20123;-74
2023/11/23 01:30:29;;;;;;;0.40;0.40;;;;;;;3.25;100.00;101503.94;5045508;28;20487;-75
2023/11/23 01:32:54;;;;;;;0.40;0.40;;;;;;;3.34;100.00;101524.25;5043386;28;20106;-75
2023/11/23 01:35:20;;;;;;;2.25;0.95;;;;;;;3.20;100.00;101510.63;5052488;28;20025;-75
2023/11/23 01:37:46;;;;;;;1.75;1.65;;;;;;;3.34;100.00;101553.66;5039083;28;20040;-74
2023/11/23 01:40:12;;;;;;;0.55;0.55;;;;;;;3.08;100.00;101521.28;5037151;28;20573;-74
2023/11/23 01:42:38;;;;;;;0.38;0.38;;;;;;;2.94;100.00;101486.03;5060707;28;20054;-75
2023/11/23 01:45:04;;;;;;;2.83;2.72;;;;;;;3.51;100.00;101562.25;5062046;28;20070;-75
2023/11/23 01:47:32;;;;;;;0.40;0.40;;;;;;;3.52;100.00;101552.75;5046963;28;20052;-75
2023/11/23 01:49:59;;;;;;;1.25;1.25;;;;;;;3.16;100.00;101526.84;5047324;28;20049;-75
2023/11/23 01:52:26;;;;;;;0.35;0.35;;;;;;;2.78;100.00;101442.06;5046606;28;20076;-73
2023/11/23 01:54:52;;;;;;;0.77;0.77;;;;;;;2.66;100.00;101424.22;5044523;28;20036;-73
2023/11/23 01:57:19;;;;;;;1.38;1.27;;;;;;;2.87;100.00;101504.69;5061593;28;20044;-74
2023/11/23 01:59:46;;;;;;;0.30;0.30;;;;;;;2.92;100.00;101487.66;5032298;28;20122;-75
2023/11/23 02:02:12;;;;;;;1.08;1.08;;;;;;;2.66;100.00;101426.81;5033922;28;20064;-74
2023/11/23 02:04:37;;;;;;;1.65;1.38;;;;;;;3.37;100.00;101546.03;5056800;28;20439;-75
2023/11/23 02:07:03;;;;;;;0.50;0.50;;;;;;;2.48;100.00;101427.69;5059374;28;20572;-74
2023/11/23 02:09:29;;;;;;;0.52;0.52;;;;;;;3.13;100.00;101524.97;5061277;28;20107;-74
2023/11/23 02:11:56;;;;;;;0.85;0.85;;;;;;;3.19;100.00;101552.06;5045875;28;20068;-74
2023/11/23 02:14:22;;;;;;;0.57;0.57;;;;;;;3.27;100.00;101554.19;5045244;28;20078;-75
2023/11/23 02:16:47;;;;;;;3.70;3.42;;;;;;;2.98;100.00;101502.66;5061658;28;20468;-75
2023/11/23 02:19:12;;;;;;;1.00;0.50;;;;;;;3.16;100.00;101543.31;5028340;28;20179;-73
2023/11/23 02:21:38;;;;;;;3.17;2.97;;;;;;;3.23;100.00;101543.59;5056259;28;20044;-74
2023/11/23 02:24:11;;;;;;;0.20;0.20;;;;;;;3.24;100.00;101545.38;5059638;28;20025;-74
2023/11/23 02:26:37;;;;;;;0.30;0.30;;;;;;;3.11;100.00;101547.41;5062784;28;20041;-74
2023/11/23 02:29:04;;;;;;;1.13;1.08;;;;;;;2.69;100.00;101515.03;5059045;28;20054;-75
2023/11/23 02:31:32;;;;;;;0.32;0.32;;;;;;;3.03;100.00;101525.38;5061375;28;20106;-75
2023/11/23 02:33:58;;;;;;;0.50;0.50;;;;;;;3.22;100.00;101526.25;5047791;28;20038;-75
2023/11/23 02:36:23;;;;;;;1.35;1.25;;;;;;;3.34;100.00;101534.63;5050856;28;20170;-75
2023/11/23 02:38:49;;;;;;;0.30;0.30;;;;;;;3.25;100.00;101521.22;5056205;28;20372;-75
2023/11/23 02:41:14;;;;;;;0.45;0.45;;;;;;;3.29;100.00;101523.13;5061443;28;20177;-75
2023/11/23 02:43:41;;;;;;;1.13;1.10;;;;;;;3.15;100.00;101530.25;5063878;28;20036;-75
2023/11/23 02:46:07;;;;;;;1.35;1.30;;;;;;;3.19;100.00;101519.22;5056320;28;20416;-75
2023/11/23 02:48:33;;;;;;;0.40;0.40;;;;;;;3.08;100.00;101525.59;5059684;28;20041;-73
2023/11/23 02:50:59;;;;;;;0.30;0.30;;;;;;;2.46;100.00;101395.66;5049630;28;20465;-74
2023/11/23 02:53:29;;;;;;;1.17;0.82;;;;;;;2.61;100.00;101418.81;5061920;28;20044;-73
2023/11/23 02:55:55;;;;;;;0.45;0.45;;;;;;;2.23;100.00;101367.75;5065301;28;20032;-75
2023/11/23 02:58:21;;;;;;;1.10;0.88;;;;;;;2.89;100.00;101522.09;5045598;28;20091;-74
2023/11/23 03:00:51;;;;;;;0.70;0.70;;;;;;;2.66;100.00;101497.66;5062504;28;20102;-74
2023/11/23 03:03:17;;;;;;;0.85;0.82;;;;;;;2.71;100.00;101511.72;5064933;28;20021;-75
2023/11/23 03:05:43;;;;;;;2.05;1.95;;;;;;;2.31;100.00;101424.25;5044418;28;20029;-76
2023/11/23 03:08:08;;;;;;;0.93;0.93;;;;;;;2.23;100.00;101402.28;5060825;28;20546;-75
2023/11/23 03:10:34;;;;;;;6.07;3.92;;;;;;;2.89;100.00;101531.59;5063706;28;20060;-75
2023/11/23 03:13:00;;;;;;;0.30;0.30;;;;;;;2.19;100.00;101412.41;5057991;28;20178;-75
2023/11/23 03:15:26;;;;;;;0.38;0.38;;;;;;;2.08;100.00;101388.56;5050049;28;20138;-75
2023/11/23 03:17:52;;;;;;;0.57;0.57;;;;;;;2.94;100.00;101546.53;5029787;28;20098;-74
2023/11/23 03:20:18;;;;;;;0.52;0.52;;;;;;;2.92;100.00;101545.56;5054089;28;20488;-74
2023/11/23 03:22:43;;;;;;;0.38;0.38;;;;;;;2.28;100.00;101449.13;5073586;28;20045;-75
2023/11/23 03:28:30;;;;;;;0.40;0.40;;;;;;;2.70;100.00;101559.19;5075727;28;20129;-74
2023/11/23 03:30:56;;;;;;;10.63;9.93;;;;;;;2.24;100.00;101461.00;5075061;28;20032;-75
2023/11/23 03:33:22;;;;;;;0.63;0.50;;;;;;;2.42;100.00;101558.59;5075130;28;20025;-75
2023/11/23 03:35:48;;;;;;;0.40;0.40;;;;;;;2.47;100.00;101557.13;5056223;28;20024;-76
2023/11/23 03:45:23;;;;;;;1.35;1.25;;;;;;;2.39;100.00;101582.66;5055792;28;20048;-75
2023/11/23 03:51:18;;;;;;;0.30;0.30;;;;;;;2.16;100.00;101589.19;5055804;28;20499;-76
2023/11/23 03:53:44;;;;;;;0.60;0.60;;;;;;;1.55;100.00;101464.31;5054174;28;20025;-74
2023/11/23 03:56:26;;;;;;;0.30;0.30;;;;;;;2.35;100.00;101567.75;5069569;28;20409;-74
2023/11/23 04:02:14;;;;;;;0.30;0.30;;;;;;;2.18;100.00;101537.47;5055029;28;20453;-75
2023/11/23 04:11:23;;;;;;;4.10;3.90;;;;;;;1.72;100.00;101466.09;5074609;28;20044;-74
2023/11/23 04:13:50;;;;;;;0.32;0.32;;;;;;;2.25;100.00;101593.97;5053521;28;20040;-75
2023/11/23 04:16:15;;;;;;;0.30;0.30;;;;;;;2.37;100.00;101597.22;5054536;28;20473;-75
2023/11/23 04:25:24;;;;;;;7.00;6.63;;;;;;;1.46;100.00;101483.69;5054925;28;20035;-74
2023/11/23 04:27:50;;;;;;;2.53;2.42;;;;;;;1.85;100.00;101586.66;5053912;28;20033;-75
2023/11/23 04:30:15;;;;;;;1.05;1.05;;;;;;;1.76;100.00;101593.94;5069066;28;20020;-75
2023/11/23 04:32:41;;;;;;;2.42;2.28;;;;;;;2.10;100.00;101620.81;5074591;28;20060;-76
2023/11/23 04:35:07;;;;;;;0.30;0.30;;;;;;;1.89;100.00;101617.94;5074059;28;20036;-75
2023/11/23 04:37:33;;;;;;;0.32;0.32;;;;;;;2.13;100.00;101601.06;5034282;28;20041;-75
2023/11/23 04:39:59;;;;;;;2.35;1.63;;;;;;;1.54;100.00;101460.81;5049694;28;20037;-75
2023/11/23 04:42:24;;;;;;;0.40;0.40;;;;;;;2.28;100.00;101638.16;5058539;28;20044;-74
2023/11/23 04:44:50;;;;;;;0.63;0.63;;;;;;;2.05;100.00;101588.63;5053579;28;20133;-76
2023/11/23 04:47:15;;;;;;;0.43;0.43;;;;;;;1.64;100.00;101477.75;5059137;28;20499;-75
2023/11/23 04:49:41;;;;;;;0.40;0.40;;;;;;;2.44;100.00;101603.59;5060150;28;20487;-75
2023/11/23 04:52:31;;;;;;;28.50;18.10;;;;;;;2.10;100.00;101631.16;5047053;28;20087;-74
2023/11/23 04:54:58;;;;;;;1.85;1.05;;;;;;;2.44;100.00;101625.22;5027282;28;20046;-76
2023/11/23 04:57:24;;;;;;;5.50;5.22;;;;;;;2.06;100.00;101517.03;5028752;28;20088;-75
2023/11/23 04:59:49;;;;;;;0.35;0.35;;;;;;;2.33;100.00;101615.97;5053793;28;20064;-75
2023/11/23 05:02:16;;;;;;;2.80;2.70;;;;;;;1.68;100.00;101621.97;5052516;28;20071;-75
2023/11/23 05:04:41;;;;;;;3.90;3.67;;;;;;;0.56;100.00;101401.19;5062160;28;20463;-74
2023/11/23 05:07:07;;;;;;;1.60;1.50;;;;;;;1.97;100.00;101613.22;5040613;28;20041;-74
2023/11/23 05:09:33;;;;;;;0.38;0.38;;;;;;;1.64;100.00;101537.25;5027040;28;20029;-75
2023/11/23 05:11:59;;;;;;;0.60;0.60;;;;;;;1.43;100.00;101530.09;5056487;28;20032;-74
2023/11/23 05:14:24;;;;;;;1.83;1.75;;;;;;;1.75;100.00;101636.13;5058908;28;20036;-74
2023/11/23 05:16:51;;;;;;;1.10;1.10;;;;;;;1.60;100.00;101540.47;5059166;28;20066;-75
2023/11/23 05:19:16;;;;;;;0.43;0.43;;;;;;;2.45;100.00;101637.34;5061929;28;20055;-76
2023/11/23 05:21:50;;;;;;;5.13;4.93;;;;;;;2.26;100.00;101611.28;5039062;28;20687;-75
2023/11/23 05:24:15;;;;;;;1.25;1.25;;;;;;;1.63;100.00;101499.25;5059506;28;20564;-75
2023/11/23 05:26:41;;;;;;;0.40;0.40;;;;;;;2.18;100.00;101586.66;5059017;28;20047;-74
2023/11/23 05:29:06;;;;;;;0.30;0.30;;;;;;;2.51;100.00;101623.84;5049904;28;20528;-77
2023/11/23 05:31:32;;;;;;;1.15;1.15;;;;;;;2.77;100.00;101611.34;5043637;28;20485;-75
2023/11/23 05:33:58;;;;;;;0.30;0.30;;;;;;;2.70;100.00;101599.75;5036316;28;20044;-74
2023/11/23 05:36:24;;;;;;;0.95;0.95;;;;;;;2.72;100.00;101613.69;5046912;28;20108;-76
2023/11/23 05:38:49;;;;;;;0.85;0.85;;;;;;;2.21;100.00;101480.69;5036219;28;20120;-75
2023/11/23 05:41:15;;;;;;;1.10;1.10;;;;;;;1.84;100.00;101453.78;5055099;28;20044;-74
2023/11/23 05:43:41;;;;;;;2.70;2.60;;;;;;;2.32;100.00;101560.72;5036871;28;20037;-74
2023/11/23 05:46:07;;;;;;;0.70;0.70;;;;;;;2.59;100.00;101580.19;5046782;28;20117;-74
2023/11/23 05:48:40;;;;;;;1.13;1.02;;;;;;;2.05;100.00;101485.06;5059388;28;20056;-76
2023/11/23 05:51:05;;;;;;;1.75;1.27;;;;;;;2.19;100.00;101562.56;5041588;28;20032;-76
2023/11/23 05:53:32;;;;;;;1.75;1.65;;;;;;;2.25;100.00;101516.31;5043718;28;20156;-74
2023/11/23 05:55:58;;;;;;;4.05;3.85;;;;;;;2.81;100.00;101583.06;5057715;28;20093;-75
2023/11/23 05:58:24;;;;;;;0.30;0.30;;;;;;;2.86;100.00;101594.53;5059571;28;20067;-74
2023/11/23 06:00:49;;;;;;;0.40;0.40;;;;;;;2.97;100.00;101610.59;5058064;28;20032;-75
2023/11/23 06:03:15;;;;;;;1.98;1.27;;;;;;;2.95;100.00;101600.19;5055019;28;20024;-77
2023/11/23 06:05:41;;;;;;;0.40;0.40;;;;;;;2.77;100.00;101595.78;5034855;28;20031;-74
2023/11/23 06:08:07;;;;;;;0.80;0.68;;;;;;;2.90;100.00;101619.81;5059982;28;20044;-76
2023/11/23 06:10:35;;;;;;;0.40;0.40;;;;;;;2.71;100.00;101585.97;5047425;28;20045;-76
2023/11/23 06:13:01;;;;;;;0.85;0.85;;;;;;;1.34;100.00;101487.34;5024474;28;20068;-76
2023/11/23 06:15:26;;;;;;;34.88;25.15;;;;;;;2.50;100.00;101617.75;5060118;28;20054;-76
2023/11/23 06:17:52;;;;;;;0.38;0.38;;;;;;;1.99;100.00;101505.47;5049901;28;20021;-77
2023/11/23 06:20:18;;;;;;;3.55;3.22;;;;;;;2.20;100.00;101513.47;5044972;28;20052;-76
2023/11/23 06:22:44;;;;;;;0.43;0.43;;;;;;;2.20;100.00;101632.59;5031726;28;20071;-75
2023/11/23 06:25:09;;;;;;;1.15;1.15;;;;;;;1.99;100.00;101631.41;5054005;28;20462;-76
2023/11/23 06:27:35;;;;;;;0.30;0.30;;;;;;;1.61;100.00;101513.78;5044959;28;20037;-75
2023/11/23 06:30:00;;;;;;;25.60;20.88;;;;;;;2.25;100.00;101579.34;5035337;28;20029;-75
2023/11/23 06:32:26;;;;;;;0.60;0.60;;;;;;;2.18;100.00;101626.44;5053407;28;20048;-75
2023/11/23 06:35:03;;;;;;;0.32;0.32;;;;;;;2.18;100.00;101532.31;5055674;28;20048;-74
2023/11/23 06:37:29;;;;;;;0.47;0.47;;;;;;;2.72;100.00;101596.44;5037824;28;20054;-75
2023/11/23 06:39:55;;;;;;;0.52;0.52;;;;;;;3.12;100.00;101633.84;5043163;28;20076;-75
2023/11/23 06:42:21;;;;;;;0.20;0.20;;;;;;;2.65;100.00;101635.81;5050015;28;20016;-74
2023/11/23 06:44:47;;;;;;;0.63;0.63;;;;;;;2.63;100.00;101576.94;5042655;28;20464;-74
2023/11/23 06:47:14;;;;;;;0.93;0.70;;;;;;;1.88;100.00;101491.97;5042054;28;20052;-82
2023/11/23 06:49:40;;;;;;;0.93;0.93;;;;;;;2.12;100.00;101496.63;5043567;28;20067;-81
2023/11/23 06:52:06;;;;;;;0.50;0.50;;;;;;;1.83;100.00;101483.09;5055463;28;20135;-85
2023/11/23 06:54:32;;;;;;;9.65;9.20;;;;;;;2.63;100.00;101540.66;5050446;28;20323;-85
2023/11/23 06:56:58;;;;;;;1.60;1.50;;;;;;;3.09;100.00;101594.78;5056135;28;20940;-87
2023/11/23 06:59:24;;;;;;;0.80;0.80;;;;;;;1.92;100.00;101474.00;5037414;28;20360;-82
2023/11/23 07:01:50;;;;;;;0.55;0.55;;;;;;;2.51;100.00;101572.91;5059442;28;20108;-87
2023/11/23 07:04:15;;;;;;;0.30;0.30;;;;;;;2.66;100.00;101509.72;5058271;28;20045;-87
2023/11/23 07:06:41;;;;;;;1.30;1.27;;;;;;;2.72;100.00;101578.28;5053997;28;20028;-77
2023/11/23 07:09:07;;;;;;;3.78;1.48;;;;;;;2.35;100.00;101465.88;5060911;28;20121;-86
2023/11/23 07:11:33;;;;;;;1.65;1.55;;;;;;;2.27;100.00;101581.97;5060420;28;20094;-81
2023/11/23 07:14:00;;;;;;;0.90;0.90;;;;;;;2.34;100.00;101594.44;5043697;28;20380;-84
2023/11/23 07:16:27;;;;;;;3.00;1.60;;;;;;;2.03;100.00;101506.50;5062938;28;20109;-86
2023/11/23 07:18:52;;;;;;;0.30;0.30;;;;;;;2.44;100.00;101510.34;5060135;28;20035;-84
2023/11/23 07:21:18;;;;;;;0.40;0.40;;;;;;;2.27;100.00;101463.78;5060498;28;20417;-85
2023/11/23 07:23:44;;;;;;;1.30;1.23;;;;;;;2.93;100.00;101562.94;5035098;28;20055;-84
2023/11/23 07:26:11;;;;;;;1.45;1.35;;;;;;;2.97;100.00;101569.13;5041827;28;20091;-86
2023/11/23 07:28:36;;;;;;;0.55;0.55;;;;;;;2.31;100.00;101561.50;5047737;28;20037;-84
2023/11/23 07:31:02;;;;;;;0.63;0.63;;;;;;;2.35;100.00;101562.56;5049493;28;20102;-82
2023/11/23 07:33:34;;;;;;;1.77;1.67;;;;;;;1.83;100.00;101492.53;5055068;28;20662;-85
2023/11/23 07:36:05;;;;;;;3.47;3.33;;;;;;;2.59;100.00;101596.59;5062990;28;20441;-85
2023/11/23 07:38:32;;;;;;;14.90;13.50;;;;;;;1.89;100.00;101511.84;5072259;28;20032;-86
2023/11/23 07:40:58;;;;;;;0.70;0.70;;;;;;;2.29;100.00;101598.50;5071882;28;20376;-86
2023/11/23 07:43:24;;;;;;;1.42;1.42;;;;;;;1.99;100.00;101461.47;5045053;28;20046;-84
2023/11/23 07:45:50;;;;;;;0.45;0.45;;;;;;;2.85;100.00;101582.38;5064767;28;20036;-85
2023/11/23 07:48:16;;;;;;;0.80;0.80;;;;;;;2.20;100.00;101458.19;5064378;28;20048;-85
2023/11/23 07:50:43;;;;;;;0.50;0.50;;;;;;;2.37;100.00;101435.75;5065198;28;20032;-85
2023/11/23 07:53:09;;;;;;;0.50;0.50;;;;;;;2.85;100.00;101555.56;5060418;28;20033;-85
2023/11/23 07:55:43;;;;;;;1.38;1.33;;;;;;;1.87;100.00;101479.84;5064049;28;20040;-86
2023/11/23 07:58:08;;;;;;;1.25;1.25;;;;;;;2.26;100.00;101541.38;5059113;28;20393;-85
2023/11/23 08:00:37;;;;;;;0.35;0.35;;;;;;;2.28;100.00;101551.00;5044873;28;20028;-86
2023/11/23 08:03:04;;;;;;;0.93;0.93;;;;;;;2.75;100.00;101534.38;5062554;28;20073;-85
2023/11/23 08:05:30;;;;;;;6.53;6.05;;;;;;;2.64;100.00;101555.38;5049779;28;20040;-85
2023/11/23 08:07:56;;;;;;;14.80;10.65;;;;;;;2.86;100.00;101532.34;5049177;28;20072;-85
2023/11/23 08:10:22;;;;;;;0.20;0.20;;;;;;;2.42;100.00;101414.44;5030250;28;20044;-86
2023/11/23 08:12:47;;;;;;;0.45;0.45;;;;;;;3.54;100.00;101556.31;5014066;28;20028;-86
2023/11/23 08:15:13;;;;;;;1.50;0.82;;;;;;;3.09;100.00;101519.56;5056991;28;20033;-84
2023/11/23 08:17:39;;;;;;;1.35;1.30;;;;;;;3.39;100.00;101517.56;5063552;28;20482;-84
2023/11/23 08:20:09;;;;;;;0.60;0.60;;;;;;;3.28;100.00;101505.81;5044774;28;20464;-83
2023/11/23 08:22:35;;;;;;;0.50;0.50;;;;;;;3.34;100.00;101452.50;5046766;28;20075;-85
2023/11/23 08:25:01;;;;;;;0.70;0.70;;;;;;;2.91;100.00;101401.25;5059894;28;20333;-85
2023/11/23 08:27:27;;;;;;;0.30;0.30;;;;;;;2.61;100.00;101423.09;5062533;28;20051;-83
2023/11/23 08:29:53;;;;;;;1.15;1.05;;;;;;;2.69;100.00;101474.50;5059936;28;20061;-85
2023/11/23 08:32:19;;;;;;;2.83;2.60;;;;;;;2.80;100.00;101443.91;5063623;28;20127;-82
2023/11/23 08:34:44;;;;;;;0.90;0.88;;;;;;;3.11;100.00;101390.91;5043384;28;20041;-86
2023/11/23 08:37:10;;;;;;;1.13;1.02;;;;;;;3.37;100.00;101443.97;5056816;28;20173;-86
2023/11/23 08:39:37;;;;;;;0.40;0.40;;;;;;;3.13;100.00;101337.41;5061326;28;20094;-86
2023/11/23 08:42:03;;;;;;;0.35;0.35;;;;;;;3.73;100.00;101372.06;5060149;28;20032;-81
2023/11/23 08:44:28;;;;;;;0.30;0.30;;;;;;;4.21;100.00;101441.59;5062616;28;20498;-85
2023/11/23 08:46:54;;;;;;;0.75;0.75;;;;;;;4.46;100.00;101476.41;5065019;28;20040;-85
2023/11/23 08:49:21;;;;;;;5.38;4.95;;;;;;;4.34;100.00;101469.00;5063194;28;20036;-85
2023/11/23 08:51:46;;;;;;;10.45;9.73;;;;;;;4.46;100.00;101459.09;5060683;28;20035;-84
2023/11/23 08:54:12;;;;;;;1.45;1.40;;;;;;;3.43;100.00;101356.03;5062262;28;20025;-86
2023/11/23 08:56:38;;;;;;;0.60;0.60;;;;;;;4.74;100.00;101463.72;5055034;28;20016;-85
2023/11/23 08:59:03;;;;;;;0.63;0.63;;;;;;;3.34;100.00;101330.56;5057829;28;20155;-80
2023/11/23 09:01:29;;;;;;;0.73;0.73;;;;;;;3.59;100.00;101417.28;5061538;28;20047;-86
2023/11/23 09:03:55;;;;;;;0.40;0.40;;;;;;;4.23;100.00;101435.63;5042133;28;20039;-85
2023/11/23 09:06:22;;;;;;;15.38;13.98;;;;;;;4.34;100.00;101414.44;5058287;28;20036;-85
2023/11/23 09:08:48;;;;;;;0.50;0.50;;;;;;;4.19;100.00;101326.34;5060842;28;20459;-82
2023/11/23 09:11:14;;;;;;;1.95;1.85;;;;;;;4.43;100.00;101404.41;5059760;28;20037;-83
2023/11/23 09:13:40;;;;;;;1.02;1.02;;;;;;;4.08;100.00;101362.28;5062484;28;20051;-87
2023/11/23 09:16:07;;;;;;;0.98;0.98;;;;;;;3.83;100.00;101304.97;5059836;28;20036;-87
2023/11/23 09:18:33;;;;;;;2.58;2.47;;;;;;;4.30;100.00;101324.19;5062575;28;20029;-86
2023/11/23 09:20:59;;;;;;;1.30;0.80;;;;;;;5.15;100.00;101415.06;5058727;28;20032;-80
2023/11/23 09:23:27;;;;;;;1.52;1.42;;;;;;;4.83;100.00;101321.09;5059407;28;20101;-82
2023/11/23 09:25:52;;;;;;;0.30;0.30;;;;;;;5.41;100.00;101399.56;5062065;28;20044;-83
2023/11/23 09:28:19;;;;;;;0.57;0.57;;;;;;;5.16;100.00;101376.94;5051905;28;20056;-83
2023/11/23 09:30:46;;;;;;;0.73;0.73;;;;;;;5.22;100.00;101353.72;5047721;28;20080;-86
2023/11/23 09:33:11;;;;;;;0.95;0.95;;;;;;;5.43;100.00;101388.38;5056629;28;20050;-87
2023/11/23 09:35:38;;;;;;;23.67;22.02;;;;;;;5.13;100.00;101338.69;5058825;28;20013;-86
2023/11/23 09:38:09;;;;;;;0.75;0.73;;;;;;;5.34;100.00;101367.22;5062644;28;20489;-84
2023/11/23 09:40:35;;;;;;;1.38;1.38;;;;;;;5.06;100.00;101344.50;5036821;28;20071;-83
2023/11/23 09:43:01;;;;;;;0.50;0.50;;;;;;;4.65;100.00;101261.47;5036704;28;20429;-84
2023/11/23 09:45:28;;;;;;;1.30;1.23;;;;;;;5.61;100.00;101345.59;5061510;28;20112;-86
2023/11/23 09:47:56;;;;;;;1.20;1.20;;;;;;;5.57;100.00;101328.09;5059894;28;20039;-84
2023/11/23 09:50:21;;;;;;;4.50;4.07;;;;;;;5.43;100.00;101307.69;5048658;28;20041;-86
2023/11/23 09:52:47;;;;;;;1.77;1.65;;;;;;;4.70;100.00;101234.78;5060390;28;20059;-88
2023/11/23 09:55:16;;;;;;;1.33;1.27;;;;;;;4.93;100.00;101233.91;5056098;28;20276;-86
2023/11/23 09:57:44;;;;;;;1.73;1.63;;;;;;;5.71;100.00;101293.91;5061275;28;20417;-82
2023/11/23 10:00:14;;;;;;;0.40;0.40;;;;;;;5.66;100.00;101308.44;5057450;28;20094;-78
2023/11/23 10:02:42;;;;;;;23.25;7.80;;;;;;;6.01;100.00;101324.41;5060645;28;20024;-87
2023/11/23 10:05:11;;;;;;;0.93;0.73;;;;;;;5.86;100.00;101274.41;5061601;28;20045;-87
2023/11/23 10:07:37;;;;;;;1.48;1.38;;;;;;;5.43;100.00;101239.09;5058397;28;20050;-79
2023/11/23 10:10:05;;;;;;;1.10;1.05;;;;;;;6.11;100.00;101309.97;5059943;28;20045;-86
2023/11/23 10:12:33;;;;;;;1.17;1.17;;;;;;;5.45;100.00;101207.09;5056606;28;20054;-86
2023/11/23 10:14:58;;;;;;;0.30;0.30;;;;;;;5.61;100.00;101186.78;5042523;28;20040;-84
2023/11/23 10:17:24;;;;;;;0.65;0.65;;;;;;;5.55;100.00;101152.72;5059025;28;20086;-87
2023/11/23 10:19:49;;;;;;;2.17;2.08;;;;;;;5.64;100.00;101184.28;5067604;28;20037;-85
2023/11/23 10:22:15;;;;;;;2.47;0.85;;;;;;;5.87;100.00;101179.81;5064677;28;20048;-86
2023/11/23 10:24:48;;;;;;;0.30;0.30;;;;;;;6.62;100.00;101288.13;5061783;28;20102;-83
2023/11/23 10:27:16;;;;;;;0.40;0.40;;;;;;;5.89;100.00;101181.63;5062743;28;20029;-85
2023/11/23 10:29:42;;;;;;;4.43;4.22;;;;;;;6.02;100.00;101172.50;5061441;28;20039;-86
2023/11/23 10:32:09;;;;;;;1.50;1.45;;;;;;;6.25;100.00;101242.66;5059315;28;20484;-85
2023/11/23 10:34:41;;;;;;;0.50;0.35;;;;;;;6.24;100.00;101220.06;5055694;28;20535;-83
2023/11/23 10:37:08;;;;;;;0.30;0.30;;;;;;;6.05;100.00;101245.53;5040504;28;20043;-86
2023/11/23 10:39:34;;;;;;;0.52;0.52;;;;;;;6.38;100.00;101255.25;5042396;28;20556;-85
2023/11/23 10:41:59;;;;;;;0.93;0.93;;;;;;;6.17;100.00;101239.81;5060324;28;20103;-87
2023/11/23 10:44:29;;;;;;;4.32;4.13;;;;;;;6.59;100.00;101241.09;5039731;28;20028;-86
2023/11/23 10:47:03;;;;;;;1.50;1.30;;;;;;;6.81;100.00;101253.91;5060673;28;20103;-85
2023/11/23 10:49:31;;;;;;;;;;;;;;;6.79;100.00;101245.19;5062361;28;20066;-85
2023/11/23 10:51:58;;;;;;;1.10;1.10;;;;;;;6.89;100.00;101239.38;5060407;28;20355;-86
2023/11/23 10:54:23;;;;;;;0.95;0.95;;;;;;;6.34;100.00;101120.44;5059182;28;20101;-87
2023/11/23 10:56:50;;;;;;;2.03;1.83;;;;;;;6.73;100.00;101231.94;5059469;28;20411;-84
2023/11/23 10:59:20;;;;;;;3.28;3.13;;;;;;;6.70;100.00;101185.81;5034576;28;20045;-84
2023/11/23 11:01:48;;;;;;;1.55;0.40;;;;;;;6.64;100.00;101203.00;5047484;28;20473;-86
2023/11/23 11:04:15;;;;;;;0.35;0.35;;;;;;;6.91;100.00;101201.16;5065522;28;20041;-86
2023/11/23 11:06:41;;;;;;;1.45;1.35;;;;;;;6.94;100.00;101197.75;5064707;28;20433;-87
2023/11/23 11:09:14;;;;;;;0.77;0.77;;;;;;;6.99;100.00;101193.53;5064800;28;20520;-80
2023/11/23 11:11:44;;;;;;;0.40;0.40;;;;;;;6.66;100.00;101100.50;5063620;28;20041;-87
2023/11/23 11:14:13;;;;;;;0.70;0.70;;;;;;;6.68;100.00;101058.81;5062736;28;20178;-86
2023/11/23 11:16:39;;;;;;;0.47;0.47;;;;;;;6.84;100.00;101080.97;5065180;28;20503;-85
2023/11/23 11:19:06;;;;;;;6.70;4.28;;;;;;;6.67;100.00;101029.25;5062718;28;20044;-82
2023/11/23 11:21:43;;;;;;;0.65;0.65;;;;;;;7.37;100.00;101152.81;5066206;28;20039;-83
2023/11/23 11:24:20;;;;;;;1.05;1.02;;;;;;;6.50;100.00;101015.75;5065493;28;20086;-86
2023/11/23 11:26:49;;;;;;;0.80;0.80;;;;;;;7.32;100.00;101130.00;5064953;28;20108;-86
2023/11/23 11:29:18;;;;;;;0.82;0.77;;;;;;;6.88;100.00;101070.66;5062126;28;20452;-83
2023/11/23 11:31:49;;;;;;;0.50;0.50;;;;;;;6.53;100.00;101046.25;5045378;28;20062;-88
2023/11/23 11:34:14;;;;;;;4.53;2.13;;;;;;;6.57;100.00;101027.22;5063131;28;20032;-85
2023/11/23 11:36:41;;;;;;;2.78;2.67;;;;;;;6.89;100.00;101084.56;5059598;28;20040;-78
2023/11/23 11:39:10;;;;;;;0.40;0.38;;;;;;;6.07;100.00;100926.03;5046624;28;20024;-82
2023/11/23 11:41:37;;;;;;;0.65;0.55;;;;;;;7.34;100.00;101097.88;5066052;28;20037;-88
2023/11/23 11:44:07;;;;;;;1.42;1.38;;;;;;;7.45;100.00;101105.97;5063713;28;20048;-87
2023/11/23 11:46:37;;;;;;;4.57;4.10;;;;;;;6.99;100.00;101044.81;5060938;28;20223;-83
2023/11/23 11:49:03;;;;;;;1.45;1.35;;;;;;;7.31;100.00;101123.91;5063798;28;20032;-85
2023/11/23 11:51:30;;;;;;;12.30;11.75;;;;;;;7.04;100.00;101034.50;5062997;28;20044;-85
2023/11/23 11:53:56;;;;;;;2.17;2.00;;;;;;;6.83;100.00;101012.25;5066137;28;20020;-85